sensor_id;sensor_type;location;lat;lon;timestamp;pressure;altitude;pressure_sealevel;temperature;humidity
73105;BME280;61296;50.526;30.792;2023-02-15T00:08:55;100217.06;;;-0.85;69.45
73105;BME280;61296;50.526;30.792;2023-02-15T00:24:16;100341.16;;;-0.02;69.11
73105;BME280;61296;50.526;30.792;2023-02-15T00:39:36;100196.38;;;-1.00;67.64
73105;BME280;61296;50.526;30.792;2023-02-15T00:54:55;100207.69;;;-0.93;67.18
73105;BME280;61296;50.526;30.792;2023-02-15T01:10:15;100327.88;;;-0.27;66.95
73105;BME280;61296;50.526;30.792;2023-02-15T01:25:35;100368.44;;;0.02;66.43
73105;BME280;61296;50.526;30.792;2023-02-15T01:40:56;100354.94;;;0.02;66.05
73105;BME280;61296;50.526;30.792;2023-02-15T01:56:35;100286.34;;;-0.37;65.24
73105;BME280;61296;50.526;30.792;2023-02-15T02:11:56;100343.94;;;-0.12;63.02
73105;BME280;61296;50.526;30.792;2023-02-15T02:27:21;100367.38;;;-0.03;63.80
73105;BME280;61296;50.526;30.792;2023-02-15T02:42:48;100267.97;;;-0.69;64.36
73105;BME280;61296;50.526;30.792;2023-02-15T02:58:23;100396.75;;;-0.20;63.44
73105;BME280;61296;50.526;30.792;2023-02-15T03:13:45;100288.91;;;-0.90;62.92
73105;BME280;61296;50.526;30.792;2023-02-15T03:29:07;100385.53;;;-0.37;63.08
73105;BME280;61296;50.526;30.792;2023-02-15T03:44:31;100403.34;;;-0.31;62.56
73105;BME280;61296;50.526;30.792;2023-02-15T03:59:50;100416.78;;;-0.26;62.98
73105;BME280;61296;50.526;30.792;2023-02-15T04:15:31;100417.91;;;-0.32;62.09
73105;BME280;61296;50.526;30.792;2023-02-15T04:31:09;100294.41;;;-1.05;62.11
73105;BME280;61296;50.526;30.792;2023-02-15T04:46:29;100435.22;;;-0.33;63.48
73105;BME280;61296;50.526;30.792;2023-02-15T05:01:48;100365.34;;;-0.89;63.87
73105;BME280;61296;50.526;30.792;2023-02-15T05:17:08;100354.94;;;-1.16;63.53
73105;BME280;61296;50.526;30.792;2023-02-15T05:32:27;100394.28;;;-1.00;65.89
73105;BME280;61296;50.526;30.792;2023-02-15T05:47:48;100407.03;;;-1.16;66.02
73105;BME280;61296;50.526;30.792;2023-02-15T06:03:07;100485.69;;;-0.68;65.32
73105;BME280;61296;50.526;30.792;2023-02-15T06:18:26;100476.72;;;-0.63;63.45
73105;BME280;61296;50.526;30.792;2023-02-15T06:33:45;100443.78;;;-0.65;62.38
73105;BME280;61296;50.526;30.792;2023-02-15T06:49:04;100385.72;;;-0.68;60.72
73105;BME280;61296;50.526;30.792;2023-02-15T07:04:24;100473.13;;;-0.04;60.00
73105;BME280;61296;50.526;30.792;2023-02-15T07:19:43;100480.28;;;0.16;60.51
73105;BME280;61296;50.526;30.792;2023-02-15T07:35:03;100336.72;;;-0.51;59.76
73105;BME280;61296;50.526;30.792;2023-02-15T07:50:22;100455.44;;;0.43;59.27
73105;BME280;61296;50.526;30.792;2023-02-15T08:05:43;100376.91;;;-0.39;59.93
73105;BME280;61296;50.526;30.792;2023-02-15T08:21:03;100359.75;;;-0.24;59.19
73105;BME280;61296;50.526;30.792;2023-02-15T08:36:26;100465.38;;;0.18;59.36
73105;BME280;61296;50.526;30.792;2023-02-15T08:51:47;100409.47;;;-0.65;60.16
73105;BME280;61296;50.526;30.792;2023-02-15T09:07:07;100510.47;;;0.33;59.90
73105;BME280;61296;50.526;30.792;2023-02-15T09:22:27;100450.13;;;-0.02;59.39
73105;BME280;61296;50.526;30.792;2023-02-15T09:37:47;100499.25;;;0.45;59.38
73105;BME280;61296;50.526;30.792;2023-02-15T10:09:02;100493.31;;;0.72;59.37
73105;BME280;61296;50.526;30.792;2023-02-15T10:40:25;100323.94;;;-0.11;58.64
73105;BME280;61296;50.526;30.792;2023-02-15T10:55:55;100388.19;;;0.55;55.61
73105;BME280;61296;50.526;30.792;2023-02-15T11:11:21;100493.97;;;1.11;55.18
73105;BME280;61296;50.526;30.792;2023-02-15T11:26:57;100493.50;;;1.28;52.13
73105;BME280;61296;50.526;30.792;2023-02-15T11:42:21;100450.31;;;1.37;50.89
73105;BME280;61296;50.526;30.792;2023-02-15T11:57:47;100413.44;;;1.17;48.10
73105;BME280;61296;50.526;30.792;2023-02-15T12:13:19;100445.00;;;1.83;43.90
73105;BME280;61296;50.526;30.792;2023-02-15T12:28:44;100458.66;;;1.78;45.70
73105;BME280;61296;50.526;30.792;2023-02-15T12:44:19;100374.13;;;1.38;45.16
73105;BME280;61296;50.526;30.792;2023-02-15T12:59:52;100417.41;;;1.62;45.19
73105;BME280;61296;50.526;30.792;2023-02-15T13:15:41;100465.91;;;1.83;44.55
73105;BME280;61296;50.526;30.792;2023-02-15T13:31:23;100425.75;;;1.47;44.16
73105;BME280;61296;50.526;30.792;2023-02-15T13:46:55;100484.94;;;1.96;45.00
73105;BME280;61296;50.526;30.792;2023-02-15T14:02:36;100372.84;;;1.31;43.01
73105;BME280;61296;50.526;30.792;2023-02-15T14:33:58;100428.19;;;1.67;41.64
73105;BME280;61296;50.526;30.792;2023-02-15T14:49:36;100326.50;;;0.95;42.06
73105;BME280;61296;50.526;30.792;2023-02-15T15:05:01;100455.72;;;1.56;43.00
73105;BME280;61296;50.526;30.792;2023-02-15T15:20:42;100454.47;;;1.48;43.68
73105;BME280;61296;50.526;30.792;2023-02-15T15:52:35;100479.66;;;1.30;44.55
73105;BME280;61296;50.526;30.792;2023-02-15T16:08:13;100375.09;;;0.62;45.36
73105;BME280;61296;50.526;30.792;2023-02-15T16:54:19;100501.47;;;0.96;46.99
73105;BME280;61296;50.526;30.792;2023-02-15T17:09:55;100553.91;;;1.05;47.51
73105;BME280;61296;50.526;30.792;2023-02-15T17:25:24;100401.06;;;0.10;49.09
73105;BME280;61296;50.526;30.792;2023-02-15T17:40:45;100536.13;;;0.94;50.47
73105;BME280;61296;50.526;30.792;2023-02-15T17:56:04;100544.03;;;0.90;51.30
73105;BME280;61296;50.526;30.792;2023-02-15T18:11:28;100539.22;;;0.82;51.77
73105;BME280;61296;50.526;30.792;2023-02-15T18:27:00;100537.16;;;0.74;53.12
73105;BME280;61296;50.526;30.792;2023-02-15T18:42:29;100570.59;;;0.88;54.08
73105;BME280;61296;50.526;30.792;2023-02-15T18:57:56;100570.59;;;0.88;54.91
73105;BME280;61296;50.526;30.792;2023-02-15T19:13:15;100574.97;;;0.84;55.53
73105;BME280;61296;50.526;30.792;2023-02-15T19:28:36;100584.22;;;0.78;55.36
73105;BME280;61296;50.526;30.792;2023-02-15T19:43:56;100405.00;;;-0.40;55.51
73105;BME280;61296;50.526;30.792;2023-02-15T19:59:23;100549.53;;;0.51;55.97
73105;BME280;61296;50.526;30.792;2023-02-15T20:14:43;100563.63;;;0.48;56.91
73105;BME280;61296;50.526;30.792;2023-02-15T20:30:15;100557.78;;;0.36;57.47
73105;BME280;61296;50.526;30.792;2023-02-15T20:45:59;100457.97;;;-0.39;58.56
73105;BME280;61296;50.526;30.792;2023-02-15T21:01:18;100464.94;;;-0.28;58.68
73105;BME280;61296;50.526;30.792;2023-02-15T21:16:38;100396.88;;;-0.84;59.43
73105;BME280;61296;50.526;30.792;2023-02-15T21:31:57;100400.66;;;-0.80;59.56
73105;BME280;61296;50.526;30.792;2023-02-15T21:47:26;100571.09;;;0.27;60.03
73105;BME280;61296;50.526;30.792;2023-02-15T22:03:04;100514.03;;;-0.16;60.50
73105;BME280;61296;50.526;30.792;2023-02-15T22:18:30;100460.31;;;-0.72;60.78
73105;BME280;61296;50.526;30.792;2023-02-15T22:33:49;100552.13;;;-0.07;60.62
73105;BME280;61296;50.526;30.792;2023-02-15T22:49:12;100499.63;;;-0.45;61.22
73105;BME280;61296;50.526;30.792;2023-02-15T23:04:33;100487.00;;;-0.65;61.87
73105;BME280;61296;50.526;30.792;2023-02-15T23:19:52;100530.91;;;-0.34;62.56
73105;BME280;61296;50.526;30.792;2023-02-15T23:35:16;100575.31;;;-0.01;63.19
73105;BME280;61296;50.526;30.792;2023-02-15T23:50:36;100489.38;;;-0.53;62.63
